Time;durP1;ratioP1;P1;durP2;ratioP2;P2;SDS_P1;SDS_P2;PMS_P1;PMS_P2;Temp;Humidity;BMP_temperature;BMP_pressure;BME280_temperature;BME280_humidity;BME280_pressure;Samples;Min_cycle;Max_cycle;Signal;HPM_P1;HPM_P2
2022/08/05 00:02:03;;;;;;;;;;;19.20;97.40;;;;;;5072636;28;19991;-58
2022/08/05 00:04:28;;;;;;;;;;;19.20;97.40;;;;;;5074247;28;19908;-59
2022/08/05 00:06:54;;;;;;;;;;;19.20;97.80;;;;;;5067612;28;19921;-59
2022/08/05 00:09:19;;;;;;;;;;;19.20;97.50;;;;;;5073978;28;19913;-58
2022/08/05 00:11:45;;;;;;;;;;;19.20;97.20;;;;;;5074309;28;19909;-58
2022/08/05 00:14:11;;;;;;;;;;;19.20;99.10;;;;;;5073757;28;19920;-57
2022/08/05 00:16:36;;;;;;;;;;;19.20;99.20;;;;;;5055564;28;20265;-58
2022/08/05 00:19:02;;;;;;;;;;;19.20;99.30;;;;;;5073674;28;19951;-59
2022/08/05 00:21:28;;;;;;;;;;;19.20;98.50;;;;;;5074274;28;19947;-58
2022/08/05 00:23:53;;;;;;;;;;;19.20;99.10;;;;;;5073736;28;19959;-59
2022/08/05 00:26:19;;;;;;;;;;;19.10;99.90;;;;;;5073759;28;19920;-58
2022/08/05 00:28:45;;;;;;;;;;;19.00;99.90;;;;;;5073487;28;20059;-58
2022/08/05 00:31:10;;;;;;;;;;;18.90;99.90;;;;;;5073540;28;20424;-58
2022/08/05 00:33:36;;;;;;;;;;;18.90;99.90;;;;;;5073361;28;19920;-59
2022/08/05 00:36:01;;;;;;;;;;;18.80;99.90;;;;;;5073912;28;20515;-58
2022/08/05 00:38:27;;;;;;;;;;;18.70;99.90;;;;;;5073519;28;19928;-59
2022/08/05 00:40:53;;;;;;;;;;;18.60;99.90;;;;;;5073830;28;19916;-58
2022/08/05 00:43:19;;;;;;;;;;;18.60;99.90;;;;;;5073513;28;19974;-58
2022/08/05 00:45:46;;;;;;;;;;;18.60;99.90;;;;;;5073056;28;20022;-59
2022/08/05 00:48:19;;;;;;;;;;;18.50;99.90;;;;;;5073107;28;19987;-59
2022/08/05 00:50:45;;;;;;;;;;;18.60;99.90;;;;;;5073642;28;20273;-59
2022/08/05 00:53:15;;;;;;;;;;;18.50;99.90;;;;;;5073128;28;19908;-58
2022/08/05 00:55:41;;;;;;;;;;;18.50;99.90;;;;;;5073064;28;20023;-59
2022/08/05 00:58:06;;;;;;;;;;;18.40;99.90;;;;;;5055309;28;19916;-59
2022/08/05 01:00:32;;;;;;;;;;;18.30;99.90;;;;;;5072635;28;20007;-59
2022/08/05 01:02:58;;;;;;;;;;;18.30;99.90;;;;;;5073392;28;19908;-59
2022/08/05 01:05:23;;;;;;;;;;;18.40;99.90;;;;;;5072861;28;20377;-58
2022/08/05 01:07:49;;;;;;;;;;;18.40;99.90;;;;;;5072962;28;19931;-59
2022/08/05 01:10:15;;;;;;;;;;;18.30;99.90;;;;;;5072686;28;19917;-59
2022/08/05 01:12:44;;;;;;;;;;;18.20;99.90;;;;;;5071968;28;20360;-59
2022/08/05 01:15:10;;;;;;;;;;;18.20;99.90;;;;;;5066196;28;20614;-58
2022/08/05 01:17:42;;;;;;;;;;;18.20;99.90;;;;;;5073099;28;19912;-59
2022/08/05 01:20:24;;;;;;;;;;;18.20;99.90;;;;;;5067131;28;19915;-59
2022/08/05 01:22:57;;;;;;;;;;;18.10;99.90;;;;;;5073364;28;19912;-58
2022/08/05 01:25:32;;;;;;;;;;;18.00;99.90;;;;;;5054566;28;19943;-58
2022/08/05 01:28:06;;;;;;;;;;;18.00;99.90;;;;;;5072755;28;20389;-59
2022/08/05 01:30:35;;;;;;;;;;;18.00;99.90;;;;;;5072091;28;19908;-59
2022/08/05 01:33:03;;;;;;;;;;;17.90;99.90;;;;;;5072543;28;19909;-58
2022/08/05 01:35:30;;;;;;;;;;;17.90;99.90;;;;;;5072414;28;19939;-59
2022/08/05 01:37:56;;;;;;;;;;;17.90;99.90;;;;;;5072420;28;20401;-59
2022/08/05 01:40:25;;;;;;;;;;;17.80;99.90;;;;;;5072070;28;19948;-58
2022/08/05 01:42:51;;;;;;;;;;;17.80;99.90;;;;;;5072157;28;19959;-59
2022/08/05 01:45:18;;;;;;;;;;;17.70;99.90;;;;;;5071499;28;19916;-58
2022/08/05 01:47:45;;;;;;;;;;;17.70;99.90;;;;;;5071998;28;19920;-58
2022/08/05 01:50:17;;;;;;;;;;;17.60;99.90;;;;;;5072264;28;19921;-58
2022/08/05 01:52:44;;;;;;;;;;;17.60;99.90;;;;;;5071772;28;19954;-59
2022/08/05 01:55:11;;;;;;;;;;;17.70;99.90;;;;;;5072416;28;20320;-58
2022/08/05 01:57:38;;;;;;;;;;;17.70;99.90;;;;;;5071640;28;19913;-58
2022/08/05 02:00:05;;;;;;;;;;;17.70;99.90;;;;;;5071946;28;20440;-58
2022/08/05 02:02:31;;;;;;;;;;;17.80;99.90;;;;;;5071823;28;19909;-58
2022/08/05 02:04:58;;;;;;;;;;;17.70;99.90;;;;;;5071615;28;20504;-58
2022/08/05 02:07:24;;;;;;;;;;;17.70;99.90;;;;;;5072307;28;20531;-57
2022/08/05 02:09:50;;;;;;;;;;;17.70;99.90;;;;;;5071655;28;20002;-57
2022/08/05 02:12:29;;;;;;;;;;;17.80;99.90;;;;;;5036427;28;19912;-59
2022/08/05 02:15:11;;;;;;;;;;;17.80;99.90;;;;;;5071725;28;19913;-58
2022/08/05 02:18:08;;;;;;;;;;;17.90;99.90;;;;;;5071518;28;20403;-57
2022/08/05 02:20:39;;;;;;;;;;;17.80;99.90;;;;;;5007446;28;19917;-58
2022/08/05 02:23:06;;;;;;;;;;;17.90;99.90;;;;;;5009992;28;19909;-58
2022/08/05 02:25:33;;;;;;;;;;;18.00;99.90;;;;;;5009369;28;19925;-57
2022/08/05 02:27:59;;;;;;;;;;;18.00;99.90;;;;;;4992839;28;20707;-59
2022/08/05 02:30:26;;;;;;;;;;;18.00;99.90;;;;;;5010090;28;19953;-58
2022/08/05 02:32:54;;;;;;;;;;;18.00;99.90;;;;;;5009210;28;19916;-57
2022/08/05 02:35:21;;;;;;;;;;;18.00;99.90;;;;;;5009244;28;19949;-59
2022/08/05 02:37:47;;;;;;;;;;;18.00;99.90;;;;;;4992912;28;19917;-58
2022/08/05 02:40:15;;;;;;;;;;;18.10;99.90;;;;;;5009352;28;19909;-57
2022/08/05 02:42:41;;;;;;;;;;;18.10;99.90;;;;;;5008975;28;19910;-58
2022/08/05 02:45:08;;;;;;;;;;;18.10;99.90;;;;;;5009459;28;19983;-58
2022/08/05 02:47:35;;;;;;;;;;;18.10;99.90;;;;;;5009289;28;19924;-57
2022/08/05 02:50:01;;;;;;;;;;;18.00;99.90;;;;;;5008779;28;19909;-57
2022/08/05 02:52:28;;;;;;;;;;;17.80;99.90;;;;;;5009498;28;19913;-58
2022/08/05 02:54:54;;;;;;;;;;;17.70;99.90;;;;;;5008797;28;19934;-58
2022/08/05 02:57:20;;;;;;;;;;;17.60;99.90;;;;;;5069622;28;19951;-58
2022/08/05 02:59:47;;;;;;;;;;;17.50;99.90;;;;;;5071513;28;19952;-57
2022/08/05 03:02:13;;;;;;;;;;;17.50;99.90;;;;;;5071243;28;19909;-58
2022/08/05 03:04:41;;;;;;;;;;;17.50;99.90;;;;;;5070994;28;19999;-58
2022/08/05 03:07:07;;;;;;;;;;;17.40;99.90;;;;;;5071209;28;19924;-57
2022/08/05 03:09:34;;;;;;;;;;;17.50;99.90;;;;;;5070928;28;19916;-58
2022/08/05 03:11:59;;;;;;;;;;;17.50;99.90;;;;;;5070664;28;20373;-58
2022/08/05 03:14:25;;;;;;;;;;;17.50;99.90;;;;;;5070974;28;19939;-58
2022/08/05 03:16:51;;;;;;;;;;;17.50;99.90;;;;;;5070870;28;19916;-59
2022/08/05 03:19:16;;;;;;;;;;;17.50;99.90;;;;;;5053369;28;19908;-58
2022/08/05 03:21:42;;;;;;;;;;;17.50;99.90;;;;;;5070883;28;19958;-58
2022/08/05 03:24:08;;;;;;;;;;;17.50;99.90;;;;;;5071039;28;19913;-59
2022/08/05 03:26:33;;;;;;;;;;;17.50;99.90;;;;;;5070194;28;19916;-59
2022/08/05 03:28:59;;;;;;;;;;;17.50;99.90;;;;;;5052505;28;20339;-59
2022/08/05 03:31:25;;;;;;;;;;;17.40;99.90;;;;;;5071167;28;20114;-59
2022/08/05 03:33:50;;;;;;;;;;;17.50;99.90;;;;;;5071155;28;19924;-59
2022/08/05 03:36:16;;;;;;;;;;;17.50;99.90;;;;;;5072147;28;20277;-59
2022/08/05 03:38:41;;;;;;;;;;;17.50;99.90;;;;;;5087032;28;20309;-59
2022/08/05 03:41:07;;;;;;;;;;;17.50;99.90;;;;;;5054318;28;19912;-58
2022/08/05 03:43:33;;;;;;;;;;;17.60;99.90;;;;;;5054729;28;20019;-58
2022/08/05 03:45:58;;;;;;;;;;;17.50;99.90;;;;;;5054953;28;19916;-59
2022/08/05 03:48:28;;;;;;;;;;;17.60;99.90;;;;;;5054663;28;20348;-59
2022/08/05 03:51:02;;;;;;;;;;;17.60;99.90;;;;;;5054420;28;20385;-58
2022/08/05 03:53:31;;;;;;;;;;;17.60;99.90;;;;;;5054632;28;19909;-58
2022/08/05 03:56:04;;;;;;;;;;;17.60;99.90;;;;;;5054034;28;19908;-59
2022/08/05 03:58:31;;;;;;;;;;;17.60;99.90;;;;;;5054274;28;19908;-59
2022/08/05 04:00:58;;;;;;;;;;;17.60;99.90;;;;;;5054236;28;20626;-58
2022/08/05 04:03:25;;;;;;;;;;;17.60;99.90;;;;;;5054548;28;19982;-58
2022/08/05 04:05:51;;;;;;;;;;;17.50;99.90;;;;;;5054482;28;19924;-58
2022/08/05 04:08:17;;;;;;;;;;;17.50;99.90;;;;;;5053739;28;19974;-58
2022/08/05 04:10:43;;;;;;;;;;;17.50;99.90;;;;;;5054234;28;19909;-59
2022/08/05 04:13:09;;;;;;;;;;;17.40;99.90;;;;;;5053963;28;19909;-59
2022/08/05 04:15:34;;;;;;;;;;;17.40;99.90;;;;;;5054313;28;19959;-59
2022/08/05 04:18:02;;;;;;;;;;;17.40;99.90;;;;;;5052818;28;19913;-58
2022/08/05 04:20:28;;;;;;;;;;;17.40;99.90;;;;;;5052616;28;20335;-58
2022/08/05 04:22:53;;;;;;;;;;;17.40;99.90;;;;;;5053778;28;19923;-58
2022/08/05 04:25:19;;;;;;;;;;;17.40;99.90;;;;;;5053545;28;19951;-58
2022/08/05 04:27:44;;;;;;;;;;;17.30;99.90;;;;;;5053918;28;19913;-59
2022/08/05 04:30:10;;;;;;;;;;;17.30;99.90;;;;;;5054048;28;20297;-59
2022/08/05 04:32:35;;;;;;;;;;;17.30;99.90;;;;;;5053884;28;19913;-59
2022/08/05 04:35:01;;;;;;;;;;;17.30;99.90;;;;;;5053610;28;20280;-58
2022/08/05 04:37:26;;;;;;;;;;;17.30;99.90;;;;;;5052716;28;19909;-59
2022/08/05 04:39:52;;;;;;;;;;;17.40;99.90;;;;;;5073742;28;19959;-59
2022/08/05 04:42:17;;;;;;;;;;;17.30;99.90;;;;;;5073476;28;19913;-59
2022/08/05 04:44:43;;;;;;;;;;;17.30;99.90;;;;;;5073218;28;20327;-59
2022/08/05 04:47:08;;;;;;;;;;;17.30;99.90;;;;;;5073320;28;19917;-59
2022/08/05 04:49:34;;;;;;;;;;;17.30;99.90;;;;;;5072314;28;20361;-59
2022/08/05 04:51:59;;;;;;;;;;;17.30;99.90;;;;;;5073221;28;20003;-59
2022/08/05 04:54:26;;;;;;;;;;;17.30;99.90;;;;;;5073572;28;19908;-58
2022/08/05 04:56:54;;;;;;;;;;;17.30;99.90;;;;;;5073295;28;19919;-59
2022/08/05 04:59:21;;;;;;;;;;;17.30;99.90;;;;;;5073399;28;19932;-58
2022/08/05 05:01:47;;;;;;;;;;;17.30;99.90;;;;;;5073436;28;19909;-58
2022/08/05 05:04:13;;;;;;;;;;;17.30;99.90;;;;;;5073720;28;19909;-59
2022/08/05 05:06:38;;;;;;;;;;;17.30;99.90;;;;;;5072465;28;19921;-58
2022/08/05 05:09:04;;;;;;;;;;;17.30;99.90;;;;;;5073230;28;20327;-59
2022/08/05 05:11:29;;;;;;;;;;;17.30;99.90;;;;;;5072933;28;20339;-59
2022/08/05 05:13:55;;;;;;;;;;;17.30;99.90;;;;;;5073530;28;19909;-58
2022/08/05 05:16:20;;;;;;;;;;;17.30;99.90;;;;;;5072940;28;19915;-58
2022/08/05 05:18:46;;;;;;;;;;;17.30;99.90;;;;;;5072766;28;19930;-58
2022/08/05 05:21:11;;;;;;;;;;;17.30;99.90;;;;;;5072521;28;19970;-58
2022/08/05 05:23:37;;;;;;;;;;;17.40;99.90;;;;;;5072436;28;19913;-58
2022/08/05 05:26:03;;;;;;;;;;;17.30;99.90;;;;;;5072369;28;20369;-59
2022/08/05 05:28:28;;;;;;;;;;;17.40;99.90;;;;;;5073126;28;19916;-58
2022/08/05 05:30:54;;;;;;;;;;;17.30;99.90;;;;;;5072851;28;19936;-59
2022/08/05 05:33:19;;;;;;;;;;;17.30;99.90;;;;;;5072903;28;20288;-58
2022/08/05 05:35:45;;;;;;;;;;;17.30;99.90;;;;;;5072011;28;19956;-59
2022/08/05 05:38:11;;;;;;;;;;;17.30;99.90;;;;;;5072246;28;19981;-59
2022/08/05 05:40:37;;;;;;;;;;;17.30;99.90;;;;;;5072474;28;19912;-59
2022/08/05 05:43:02;;;;;;;;;;;17.40;99.90;;;;;;5072476;28;19912;-56
2022/08/05 05:45:28;;;;;;;;;;;17.40;99.90;;;;;;5072107;28;20396;-58
2022/08/05 05:47:54;;;;;;;;;;;17.40;99.90;;;;;;5072320;28;20373;-58
2022/08/05 05:50:19;;;;;;;;;;;17.40;99.90;;;;;;5071489;28;19915;-58
2022/08/05 05:52:48;;;;;;;;;;;17.40;99.90;;;;;;5054701;28;19962;-59
2022/08/05 05:55:14;;;;;;;;;;;17.50;99.90;;;;;;5072264;28;19931;-58
2022/08/05 05:57:41;;;;;;;;;;;17.50;99.90;;;;;;5072286;28;19950;-58
2022/08/05 06:00:10;;;;;;;;;;;17.40;99.90;;;;;;5071715;28;20011;-57
2022/08/05 06:02:36;;;;;;;;;;;17.40;99.90;;;;;;5072052;28;19908;-58
2022/08/05 06:05:02;;;;;;;;;;;17.30;99.90;;;;;;5053351;28;19988;-57
2022/08/05 06:07:27;;;;;;;;;;;17.40;99.90;;;;;;5071817;28;19939;-58
2022/08/05 06:09:53;;;;;;;;;;;17.50;99.90;;;;;;5072003;28;19908;-58
2022/08/05 06:12:18;;;;;;;;;;;17.60;99.90;;;;;;5072009;28;19917;-58
2022/08/05 06:14:44;;;;;;;;;;;17.60;99.90;;;;;;5071599;28;19986;-58
2022/08/05 06:17:10;;;;;;;;;;;17.60;99.90;;;;;;5053842;28;19909;-58
2022/08/05 06:19:36;;;;;;;;;;;17.60;99.90;;;;;;5071319;28;19974;-58
2022/08/05 06:22:04;;;;;;;;;;;17.60;99.90;;;;;;5071450;28;20376;-57
2022/08/05 06:24:30;;;;;;;;;;;17.60;99.90;;;;;;5071850;28;19916;-58
2022/08/05 06:26:56;;;;;;;;;;;17.50;99.90;;;;;;5071259;28;19924;-59
2022/08/05 06:29:21;;;;;;;;;;;17.50;99.90;;;;;;5071241;28;19944;-58
2022/08/05 06:31:47;;;;;;;;;;;17.50;99.90;;;;;;5072364;28;19916;-58
2022/08/05 06:34:12;;;;;;;;;;;17.50;99.90;;;;;;5071177;28;19908;-58
2022/08/05 06:36:38;;;;;;;;;;;17.60;99.90;;;;;;5070992;28;19910;-58
2022/08/05 06:39:03;;;;;;;;;;;17.60;99.90;;;;;;5053305;28;19932;-58
2022/08/05 06:41:29;;;;;;;;;;;17.60;99.90;;;;;;5071035;28;19915;-58
2022/08/05 06:43:54;;;;;;;;;;;17.70;99.90;;;;;;5070799;28;20313;-58
2022/08/05 06:46:20;;;;;;;;;;;17.70;99.90;;;;;;5069304;28;20039;-59
2022/08/05 06:48:45;;;;;;;;;;;17.70;99.90;;;;;;5070636;28;20280;-58
2022/08/05 06:51:11;;;;;;;;;;;17.80;99.90;;;;;;5071344;28;19912;-59
2022/08/05 06:53:36;;;;;;;;;;;17.80;99.90;;;;;;5065583;28;19916;-59
2022/08/05 06:56:02;;;;;;;;;;;17.90;99.90;;;;;;5070332;28;19954;-59
2022/08/05 06:58:28;;;;;;;;;;;17.90;99.90;;;;;;5071002;28;19909;-59
2022/08/05 07:00:53;;;;;;;;;;;17.90;99.90;;;;;;5070831;28;20369;-59
2022/08/05 07:03:19;;;;;;;;;;;17.90;99.90;;;;;;5061998;28;19995;-58
2022/08/05 07:05:44;;;;;;;;;;;18.00;99.90;;;;;;5067773;28;20027;-59
2022/08/05 07:08:10;;;;;;;;;;;18.00;99.90;;;;;;5050844;28;20347;-59
2022/08/05 07:10:35;;;;;;;;;;;18.10;99.90;;;;;;5068425;28;19951;-60
2022/08/05 07:18:30;;;;;;;;;;;18.30;99.90;;;;;;5067766;28;20849;-60
2022/08/05 07:20:55;;;;;;;;;;;18.30;99.90;;;;;;5068997;28;19920;-59
2022/08/05 07:23:21;;;;;;;;;;;18.40;99.90;;;;;;5068892;28;19912;-59
2022/08/05 07:25:46;;;;;;;;;;;18.40;99.90;;;;;;5068617;28;19956;-60
2022/08/05 07:28:11;;;;;;;;;;;18.40;99.90;;;;;;5068694;28;19912;-59
2022/08/05 07:30:37;;;;;;;;;;;18.50;99.90;;;;;;5068423;28;19999;-61
2022/08/05 07:33:07;;;;;;;;;;;18.50;99.90;;;;;;5050128;28;20380;-59
2022/08/05 07:35:33;;;;;;;;;;;18.60;99.90;;;;;;5068840;28;20396;-59
2022/08/05 07:37:58;;;;;;;;;;;18.60;99.90;;;;;;5068302;28;20412;-58
2022/08/05 07:40:24;;;;;;;;;;;18.60;99.90;;;;;;5068820;28;19913;-59
2022/08/05 07:42:49;;;;;;;;;;;18.60;99.90;;;;;;5068611;28;19917;-58
2022/08/05 07:45:15;;;;;;;;;;;18.70;99.90;;;;;;5038835;28;19912;-58
2022/08/05 07:47:40;;;;;;;;;;;18.80;99.90;;;;;;5068119;28;19947;-59
2022/08/05 07:50:06;;;;;;;;;;;18.80;99.90;;;;;;5068419;28;19916;-58
2022/08/05 07:52:36;;;;;;;;;;;18.80;99.90;;;;;;5068512;28;19912;-59
2022/08/05 07:55:02;;;;;;;;;;;18.80;99.90;;;;;;5068920;28;19912;-59
2022/08/05 07:57:27;;;;;;;;;;;18.80;99.90;;;;;;5068221;28;20316;-58
2022/08/05 07:59:53;;;;;;;;;;;18.90;99.90;;;;;;5068350;28;19917;-59
2022/08/05 08:02:22;;;;;;;;;;;18.90;99.90;;;;;;5067762;28;20031;-59
2022/08/05 08:04:48;;;;;;;;;;;19.00;99.90;;;;;;5068690;28;20090;-59
2022/08/05 08:07:13;;;;;;;;;;;19.00;99.90;;;;;;5068399;28;20474;-59
2022/08/05 08:09:39;;;;;;;;;;;19.00;99.90;;;;;;5068588;28;19969;-62
2022/08/05 08:12:05;;;;;;;;;;;19.10;99.90;;;;;;5068199;28;20456;-58
2022/08/05 08:14:30;;;;;;;;;;;19.20;99.90;;;;;;5041335;28;20266;-58
2022/08/05 08:16:55;;;;;;;;;;;19.20;99.90;;;;;;5067839;28;20019;-58
2022/08/05 08:19:21;;;;;;;;;;;19.20;99.90;;;;;;5068391;28;19922;-57
2022/08/05 08:21:46;;;;;;;;;;;19.30;99.90;;;;;;5068059;28;20286;-59
2022/08/05 08:24:12;;;;;;;;;;;19.30;99.90;;;;;;5071593;28;19959;-58
2022/08/05 08:26:38;;;;;;;;;;;19.40;99.90;;;;;;5052763;28;20706;-58
2022/08/05 08:29:04;;;;;;;;;;;19.40;99.90;;;;;;5071064;28;19912;-57
2022/08/05 08:31:30;;;;;;;;;;;19.40;99.90;;;;;;5070486;28;19916;-58
2022/08/05 08:33:55;;;;;;;;;;;19.40;99.90;;;;;;5071080;28;19912;-59
2022/08/05 08:36:21;;;;;;;;;;;19.40;99.90;;;;;;5071488;28;19930;-59
2022/08/05 08:38:46;;;;;;;;;;;19.50;99.90;;;;;;5070959;28;19928;-58
2022/08/05 08:41:13;;;;;;;;;;;19.50;99.90;;;;;;5070310;28;19912;-57
2022/08/05 08:43:40;;;;;;;;;;;19.60;99.90;;;;;;5070905;28;19970;-58
2022/08/05 08:46:05;;;;;;;;;;;19.60;99.90;;;;;;5071157;28;20327;-59
2022/08/05 08:48:31;;;;;;;;;;;19.50;99.90;;;;;;5070503;28;19916;-58
2022/08/05 08:50:57;;;;;;;;;;;19.50;99.90;;;;;;5070734;28;19916;-58
2022/08/05 08:53:23;;;;;;;;;;;19.50;99.90;;;;;;5071108;28;20429;-57
2022/08/05 08:55:49;;;;;;;;;;;19.60;99.90;;;;;;5070459;28;19995;-59
2022/08/05 08:58:15;;;;;;;;;;;19.60;99.90;;;;;;5070259;28;19994;-58
2022/08/05 09:00:41;;;;;;;;;;;19.70;99.90;;;;;;5070454;28;19912;-58
2022/08/05 09:03:08;;;;;;;;;;;19.70;99.90;;;;;;5071094;28;20395;-58
2022/08/05 09:05:33;;;;;;;;;;;19.80;99.90;;;;;;5070562;28;19931;-58
2022/08/05 09:07:59;;;;;;;;;;;19.80;99.90;;;;;;5070717;28;19920;-57
2022/08/05 09:10:25;;;;;;;;;;;19.80;99.90;;;;;;5070546;28;19916;-59
2022/08/05 09:12:50;;;;;;;;;;;19.80;99.90;;;;;;5070571;28;19917;-58
2022/08/05 09:15:16;;;;;;;;;;;19.90;99.90;;;;;;5070593;28;19922;-58
2022/08/05 09:17:41;;;;;;;;;;;19.80;99.90;;;;;;5070449;28;19943;-58
2022/08/05 09:20:07;;;;;;;;;;;19.80;99.90;;;;;;5070587;28;19923;-58
2022/08/05 09:22:52;;;;;;;;;;;19.80;99.90;;;;;;5070591;28;20305;-58
2022/08/05 09:25:19;;;;;;;;;;;19.80;99.90;;;;;;5069885;28;19916;-58
2022/08/05 09:27:44;;;;;;;;;;;20.00;99.90;;;;;;5070180;28;19925;-58
2022/08/05 09:30:10;;;;;;;;;;;20.00;99.90;;;;;;5070021;28;19919;-58
2022/08/05 09:32:36;;;;;;;;;;;20.10;99.90;;;;;;5070487;28;19920;-58
2022/08/05 09:35:12;;;;;;;;;;;20.10;99.90;;;;;;5085560;28;19922;-58
2022/08/05 09:37:47;;;;;;;;;;;20.10;99.90;;;;;;5048994;28;19920;-58
2022/08/05 09:40:33;;;;;;;;;;;20.20;99.90;;;;;;5069920;28;19921;-57
2022/08/05 09:43:00;;;;;;;;;;;20.20;99.90;;;;;;5069673;28;19918;-59
2022/08/05 09:45:39;;;;;;;;;;;20.20;99.90;;;;;;5070170;28;19913;-60
2022/08/05 09:48:26;;;;;;;;;;;20.20;99.90;;;;;;5069245;28;21329;-60
2022/08/05 09:50:56;;;;;;;;;;;20.30;99.90;;;;;;5070753;28;19983;-60
2022/08/05 09:53:22;;;;;;;;;;;20.30;99.90;;;;;;5066987;28;20397;-60
2022/08/05 09:55:55;;;;;;;;;;;20.30;99.90;;;;;;5068880;28;19912;-59
2022/08/05 09:58:21;;;;;;;;;;;20.40;99.40;;;;;;5067288;28;19920;-62
2022/08/05 10:01:00;;;;;;;;;;;20.50;99.90;;;;;;5070456;28;19923;-62
2022/08/05 10:03:26;;;;;;;;;;;20.60;99.90;;;;;;5069899;28;19985;-60
2022/08/05 10:06:01;;;;;;;;;;;20.60;99.60;;;;;;5070030;28;20402;-61
2022/08/05 10:08:26;;;;;;;;;;;20.60;99.30;;;;;;5070146;28;19912;-59
2022/08/05 10:10:52;;;;;;;;;;;20.70;98.30;;;;;;5069136;28;20392;-60
2022/08/05 10:13:35;;;;;;;;;;;20.70;99.90;;;;;;5069518;28;19913;-59
2022/08/05 10:16:01;;;;;;;;;;;20.80;99.50;;;;;;5069288;28;19953;-60
2022/08/05 10:18:30;;;;;;;;;;;20.80;99.60;;;;;;5069037;28;20019;-59
2022/08/05 10:21:05;;;;;;;;;;;20.90;99.90;;;;;;5069697;28;19917;-60
2022/08/05 10:23:32;;;;;;;;;;;21.00;99.90;;;;;;5069894;28;19912;-60
2022/08/05 10:26:00;;;;;;;;;;;21.10;99.60;;;;;;5068882;28;19935;-59
2022/08/05 10:28:26;;;;;;;;;;;21.20;98.90;;;;;;5069452;28;20372;-60
2022/08/05 10:30:55;;;;;;;;;;;21.20;98.90;;;;;;5069162;28;19916;-61
2022/08/05 10:33:22;;;;;;;;;;;21.30;98.60;;;;;;5069371;28;19923;-60
2022/08/05 10:35:48;;;;;;;;;;;21.30;98.80;;;;;;5069277;28;19916;-63
2022/08/05 10:38:14;;;;;;;;;;;21.40;98.40;;;;;;5068178;28;19920;-62
2022/08/05 10:40:48;;;;;;;;;;;21.40;98.40;;;;;;5068800;28;20443;-59
2022/08/05 10:43:23;;;;;;;;;;;21.50;98.60;;;;;;5068705;28;19912;-60
2022/08/05 10:46:14;;;;;;;;;;;21.60;98.70;;;;;;5067738;28;19991;-59
2022/08/05 10:48:41;;;;;;;;;;;21.60;97.40;;;;;;5047845;28;20320;-62
2022/08/05 10:51:11;;;;;;;;;;;21.60;96.80;;;;;;5068875;28;19917;-61
2022/08/05 10:53:39;;;;;;;;;;;21.60;97.20;;;;;;5069324;28;20019;-60
2022/08/05 10:56:08;;;;;;;;;;;21.70;95.70;;;;;;5068444;28;19958;-61
2022/08/05 10:58:34;;;;;;;;;;;21.70;96.20;;;;;;5069183;28;19912;-61
2022/08/05 11:01:03;;;;;;;;;;;21.80;96.60;;;;;;5068377;28;19919;-60
2022/08/05 11:03:29;;;;;;;;;;;21.80;97.20;;;;;;5069001;28;19969;-60
2022/08/05 11:06:02;;;;;;;;;;;21.90;97.60;;;;;;5068572;28;19951;-61
2022/08/05 11:08:28;;;;;;;;;;;22.10;97.40;;;;;;5068134;28;20473;-61
2022/08/05 11:10:53;;;;;;;;;;;22.20;96.60;;;;;;5067969;28;19912;-61
2022/08/05 11:13:39;;;;;;;;;;;22.20;95.20;;;;;;5068787;28;19912;-62
2022/08/05 11:16:21;;;;;;;;;;;22.30;96.10;;;;;;5067720;28;20285;-60
2022/08/05 11:18:47;;;;;;;;;;;22.30;95.10;;;;;;5065743;28;20452;-59
2022/08/05 11:21:31;;;;;;;;;;;22.40;95.30;;;;;;5067499;28;20004;-57
2022/08/05 11:23:56;;;;;;;;;;;22.40;94.30;;;;;;5067988;28;19989;-59
2022/08/05 11:26:22;;;;;;;;;;;22.40;94.80;;;;;;5068040;28;20372;-59
2022/08/05 11:28:52;;;;;;;;;;;22.40;93.60;;;;;;5068336;28;19916;-58
2022/08/05 11:31:22;;;;;;;;;;;22.50;92.80;;;;;;5068244;28;19916;-61
2022/08/05 11:33:48;;;;;;;;;;;22.60;93.30;;;;;;5068292;28;19913;-60
2022/08/05 11:36:15;;;;;;;;;;;22.70;94.00;;;;;;5067924;28;19974;-60
2022/08/05 11:38:41;;;;;;;;;;;22.70;93.90;;;;;;5068171;28;19927;-59
2022/08/05 11:41:12;;;;;;;;;;;22.80;93.50;;;;;;5068549;28;19912;-61
2022/08/05 11:43:38;;;;;;;;;;;22.90;92.40;;;;;;5067523;28;19923;-61
2022/08/05 11:46:03;;;;;;;;;;;22.90;92.50;;;;;;5067991;28;19946;-59
2022/08/05 11:48:30;;;;;;;;;;;22.90;92.50;;;;;;5068614;28;20316;-61
2022/08/05 11:50:55;;;;;;;;;;;22.90;92.80;;;;;;5068310;28;19928;-61
2022/08/05 11:53:22;;;;;;;;;;;23.00;92.60;;;;;;5068285;28;19912;-60
2022/08/05 11:55:53;;;;;;;;;;;23.10;93.00;;;;;;5068535;28;19934;-59
2022/08/05 11:58:35;;;;;;;;;;;23.20;92.60;;;;;;5070954;28;19912;-62
2022/08/05 12:01:04;;;;;;;;;;;23.20;92.50;;;;;;5072023;28;20647;-61
2022/08/05 12:03:39;;;;;;;;;;;23.20;91.20;;;;;;5072149;28;19943;-61
2022/08/05 12:06:04;;;;;;;;;;;23.10;90.70;;;;;;5072399;28;19920;-62
2022/08/05 12:08:30;;;;;;;;;;;23.10;90.20;;;;;;5071776;28;20380;-62
2022/08/05 12:10:57;;;;;;;;;;;23.00;90.20;;;;;;5072351;28;19916;-62
2022/08/05 12:13:22;;;;;;;;;;;23.00;90.80;;;;;;5070058;28;19920;-60
2022/08/05 12:15:48;;;;;;;;;;;23.10;91.20;;;;;;5071700;28;19916;-60
2022/08/05 12:18:17;;;;;;;;;;;23.20;90.20;;;;;;5072356;28;19912;-59
2022/08/05 12:20:43;;;;;;;;;;;23.20;89.20;;;;;;5072271;28;19913;-60
2022/08/05 12:23:09;;;;;;;;;;;23.20;89.90;;;;;;5071493;28;20300;-58
2022/08/05 12:25:53;;;;;;;;;;;23.30;88.10;;;;;;5071527;28;19973;-59
2022/08/05 12:28:35;;;;;;;;;;;23.40;88.80;;;;;;5071800;28;19920;-59
2022/08/05 12:31:01;;;;;;;;;;;23.40;87.30;;;;;;5071655;28;19927;-59
2022/08/05 12:33:27;;;;;;;;;;;23.40;85.70;;;;;;5071844;28;19917;-58
2022/08/05 12:35:53;;;;;;;;;;;23.30;85.80;;;;;;5071385;28;20682;-59
2022/08/05 12:38:20;;;;;;;;;;;23.30;86.70;;;;;;5071369;28;19947;-58
2022/08/05 12:40:45;;;;;;;;;;;23.40;88.40;;;;;;5071418;28;19912;-59
2022/08/05 12:43:11;;;;;;;;;;;23.40;87.30;;;;;;5071635;28;19913;-58
2022/08/05 12:45:36;;;;;;;;;;;23.50;84.90;;;;;;5071897;28;19913;-58
2022/08/05 12:48:14;;;;;;;;;;;23.50;86.20;;;;;;5071341;28;19924;-60
2022/08/05 12:50:40;;;;;;;;;;;23.60;85.30;;;;;;5071970;28;19913;-60
2022/08/05 12:53:05;;;;;;;;;;;23.60;84.90;;;;;;5071822;28;19913;-60
2022/08/05 12:55:31;;;;;;;;;;;23.80;84.70;;;;;;5072918;28;19915;-60
2022/08/05 12:57:57;;;;;;;;;;;23.80;83.90;;;;;;5073314;28;19908;-61
2022/08/05 13:00:24;;;;;;;;;;;23.80;84.20;;;;;;5072426;28;19915;-59
2022/08/05 13:02:51;;;;;;;;;;;23.90;82.40;;;;;;5067544;28;19915;-57
2022/08/05 13:05:16;;;;;;;;;;;23.80;78.90;;;;;;5054745;28;20388;-59
2022/08/05 13:07:42;;;;;;;;;;;23.70;79.00;;;;;;5072906;28;19920;-57
2022/08/05 13:10:12;;;;;;;;;;;23.60;79.00;;;;;;5072305;28;19927;-58
2022/08/05 13:12:41;;;;;;;;;;;23.70;80.50;;;;;;5073291;28;19908;-58
2022/08/05 13:15:08;;;;;;;;;;;23.80;80.30;;;;;;5054746;28;20373;-58
2022/08/05 13:17:34;;;;;;;;;;;23.90;80.20;;;;;;5072739;28;19948;-59
2022/08/05 13:20:03;;;;;;;;;;;24.10;80.00;;;;;;5072373;28;19940;-59
2022/08/05 13:22:30;;;;;;;;;;;24.10;81.60;;;;;;5073218;28;19908;-59
2022/08/05 13:24:56;;;;;;;;;;;24.20;78.70;;;;;;5072788;28;19913;-58
2022/08/05 13:27:34;;;;;;;;;;;24.20;78.40;;;;;;5072692;28;20392;-58
2022/08/05 13:30:00;;;;;;;;;;;24.10;80.10;;;;;;5067898;28;19909;-58
2022/08/05 13:32:25;;;;;;;;;;;24.10;80.20;;;;;;5073112;28;19915;-58
2022/08/05 13:34:52;;;;;;;;;;;24.00;80.10;;;;;;5072455;28;20403;-58
2022/08/05 13:37:18;;;;;;;;;;;24.10;79.50;;;;;;5072376;28;19919;-58
2022/08/05 13:39:43;;;;;;;;;;;24.10;80.20;;;;;;5072482;28;19921;-58
2022/08/05 13:42:09;;;;;;;;;;;24.10;77.80;;;;;;5072610;28;19909;-58
2022/08/05 13:44:35;;;;;;;;;;;24.00;77.70;;;;;;5072457;28;19954;-59
2022/08/05 13:47:00;;;;;;;;;;;24.00;78.30;;;;;;5072709;28;19917;-58
2022/08/05 13:49:26;;;;;;;;;;;24.10;77.70;;;;;;5071859;28;20349;-58
2022/08/05 13:51:51;;;;;;;;;;;24.10;78.60;;;;;;5072886;28;20373;-58
2022/08/05 13:54:19;;;;;;;;;;;24.20;78.10;;;;;;5072334;28;19912;-57
2022/08/05 13:56:44;;;;;;;;;;;24.20;77.50;;;;;;5072169;28;19923;-58
2022/08/05 13:59:10;;;;;;;;;;;24.30;78.20;;;;;;5072255;28;19908;-58
2022/08/05 14:01:35;;;;;;;;;;;24.30;77.10;;;;;;5072304;28;19913;-58
2022/08/05 14:06:45;;;;;;;;;;;24.40;77.20;;;;;;5071795;28;19923;-58
2022/08/05 14:09:10;;;;;;;;;;;24.50;76.70;;;;;;5071657;28;19908;-59
2022/08/05 14:11:39;;;;;;;;;;;24.50;72.80;;;;;;5071555;28;19948;-57
2022/08/05 14:14:05;;;;;;;;;;;24.40;75.50;;;;;;5071790;28;20285;-58
2022/08/05 14:16:31;;;;;;;;;;;24.50;75.50;;;;;;5071408;28;20389;-58
2022/08/05 14:18:56;;;;;;;;;;;24.40;73.80;;;;;;5070772;28;20050;-59
2022/08/05 14:21:22;;;;;;;;;;;24.40;74.80;;;;;;5071568;28;19916;-59
2022/08/05 14:23:47;;;;;;;;;;;24.30;73.30;;;;;;5053230;28;19909;-59
2022/08/05 14:26:13;;;;;;;;;;;24.30;73.70;;;;;;5071396;28;19916;-59